Americus, GA

2:50 AM EDT on October 01, 2014 (GMT -0400)
RAWS AMERICUS/PLAINS GA US | Change Station
CLOSE
Current Station
Personal Weather Station
Location: Americus, GA
Elevation: 456 ft
Nearby Weather Stations

Elev 456 ft 32.11 °N, 84.18 °W | Updated 47 minutes ago

Fog
Fog
63 °F
Feels Like 63 °F
N
0
Wind Variable Wind from North
Gusts 2.0 mph

Today
High -- | Low -- °F
--% Chance of Precip.
Yesterday
High -- | Low -- °F
Precip. -- in
7:30 AM 7:21 PM
Waxing Crescent, 44% visible
Pressure 29.94 in
Visibility 10.0 miles
Clouds Clear
Dew Point 62 °F
Humidity 96%
Rainfall 0.00 in
Snow Depth Not available.
UV 0 out of 12
Pollen 5.60 out of 12
Air Quality Not available.
Flu Activity Not available.
METAR KACJ 010515Z AUTO 00000KT 10SM CLR 17/17 A2994 RMK AO2

More Conditions Fewer Conditions

Pressure 29.94 in
Visibility 10.0 miles
Clouds Clear
Dew Point 62 °F
Humidity 96%
Rainfall 0.00 in
Snow Depth Not available.
UV 0 out of 12
Pollen 5.60 out of 12
Air Quality Not available.
Flu Activity Not available.
METAR KACJ 010515Z AUTO 00000KT 10SM CLR 17/17 A2994 RMK AO2

More Conditions Fewer Conditions

10-Day Weather Forecast

Almanac

Astronomy

Oct. 01, 2014 Rise Set
Actual Time 7:30 AM EDT 7:21 PM EDT
Civil Twilight 7:06 AM EDT 7:46 PM EDT
Nautical Twilight 6:38 AM EDT 8:14 PM EDT
Astronomical Twilight 6:09 AM EDT 8:42 PM EDT
Moon 2:16 PM EDT 12:07 AM EDT
Length of Visible Light 12h 39m
Length of Day
11h 50m
Tomorrow will be 1m 56s shorter.
Waxing Crescent, 44% of the Moon is Illuminated
Today
Waxing Crescent
Oct 1
First Quarter
Oct 8
Full
Oct 15
Last Quarter
Oct 23
New

Today's Extremes

State Highs State Lows

Community

WunderPhotos

Upload Photos

1,757,886 photos uploaded!

Nearby

Snow Depth

Station Depth Elevation
No new snow has been reported.

Earthquake Activity

City Distance Mag. Time & Date
No recent earthquake activity has been reported nearby.
Minimum magnitude displayed is 2.5.

Coastal Water Temperatures

Place Temperature
No Stations Reporting

Nearby Weather Stations